Flight Track Log - Related Links

Times and Time Zones

All times are in EDT time to prevent confusion due to time zone crossing. See the AAL1491 flight status page for this flight to view local times or setup timezone preferences in your user account.

Time Position Orientation Groundspeed Altitude Reporting Facility
EDT Latitude Longitude Course Direction KTS MPH feet Rate Location/Type
Sun 03:41:47 PM 32.8490 -97.0540 195° South 179 206 2,800  Level FlightAware ADS-B
Sun 03:42:12 PM 32.8260 -97.0620 196° South 210 242 3,200 1,527 Climbing FlightAware ADS-B
Sun 03:42:42 PM 32.7970 -97.0730 198° South 230 265 4,200 2,267 Climbing FlightAware ADS-B
Sun 03:42:57 PM 32.7820 -97.0830 209° Southwest 237 273 4,900 2,880 Climbing FlightAware ADS-B
Sun 03:43:07 PM 32.7760 -97.0910 228° Southwest 238 274 5,400 3,120 Climbing FlightAware ADS-B
Sun 03:43:22 PM 32.7700 -97.1090 248° West 237 273 6,200 2,667 Climbing FlightAware ADS-B
Sun 03:43:52 PM 32.7660 -97.1470 263° West 245 282 7,400 2,073 Climbing FlightAware ADS-B
Sun 03:44:17 PM 32.7690 -97.1850 275° West 265 305 8,100 1,964 Climbing FlightAware ADS-B
Sun 03:44:47 PM 32.7720 -97.2280 275° West 278 320 9,200 2,133 Climbing FlightAware ADS-B
Sun 03:45:02 PM 32.7780 -97.2490 289° West 290 334 9,700 2,100 Climbing FlightAware ADS-B
Sun 03:45:27 PM 32.7990 -97.2840 306° West 305 351 10,600 1,440 Climbing FlightAware ADS-B
Sun 03:46:17 PM 32.8460 -97.3540 309° West 351 404 11,500 1,267 Climbing FlightAware ADS-B
Sun 03:46:57 PM 32.8880 -97.4190 308° West 376 433 12,500 2,025 Climbing FlightAware ADS-B
Sun 03:47:37 PM 32.9300 -97.4840 308° West 380 437 14,200 3,000 Climbing FlightAware ADS-B
Sun 03:48:17 PM 32.9730 -97.5500 308° West 370 426 16,500 3,000 Climbing FlightAware ADS-B
Sun 03:48:57 PM 33.0130 -97.6120 308° West 373 429 18,200 2,267 Climbing FlightAware ADS-B
Sun 03:49:47 PM 33.0680 -97.6980 307° West 390 449 19,900 2,133 Climbing FlightAware ADS-B
Sun 03:50:27 PM 33.1030 -97.7720 299° West 385 443 21,400 2,250 Climbing FlightAware ADS-B
Sun 03:51:07 PM 33.1280 -97.8500 291° West 389 448 22,900 2,025 Climbing FlightAware ADS-B
Sun 03:51:47 PM 33.1540 -97.9330 291° West 396 456 24,100 1,091 Climbing FlightAware ADS-B
Sun 03:52:57 PM 33.1970 -98.0660 291° West 405 466 24,900 1,148 Climbing FlightAware ADS-B
Sun 03:53:42 PM 33.2290 -98.1720 290° West 416 479 26,300 988 Climbing FlightAware ADS-B
Sun 03:54:22 PM 33.2510 -98.2460 290° West 416 479 26,300  Level FlightAware ADS-B
Sun 03:55:02 PM 33.2740 -98.3190 291° West 416 479 26,300  Level FlightAware ADS-B
Sun 03:55:42 PM 33.2960 -98.3930 290° West 416 479 26,300  Level FlightAware ADS-B
Sun 03:56:32 PM 33.3240 -98.4850 290° West 416 479 26,300 3,600 Level FlightAware ADS-B
Sun 03:57:12 PM 33.3720 -98.6340 291° West 422 486 31,700 4,042 Climbing FlightAware ADS-B
Sun 03:58:07 PM 33.4210 -98.7440 298° West 421 484 32,700 632 Climbing FlightAware ADS-B
Sun 03:58:47 PM 33.4520 -98.8140 298° West 421 484 32,700  Level FlightAware ADS-B
Sun 03:59:27 PM 33.4830 -98.8840 298° West 421 484 32,700  Level FlightAware ADS-B
Sun 04:00:07 PM 33.5140 -98.9540 298° West 421 484 32,700  Level FlightAware ADS-B
Sun 04:00:57 PM 33.5530 -99.0420 298° West 421 484 32,700  Level FlightAware ADS-B
Sun 04:01:37 PM 33.5840 -99.1120 298° West 421 484 32,700  Level FlightAware ADS-B
Sun 04:02:17 PM 33.6150 -99.1820 298° West 421 484 32,700  Level FlightAware ADS-B
Sun 04:02:57 PM 33.6470 -99.2520 299° West 421 484 32,700  Level FlightAware ADS-B
Sun 04:03:37 PM 33.6780 -99.3230 298° West 421 484 32,700  Level FlightAware ADS-B
Sun 04:04:27 PM 33.7170 -99.4110 298° West 421 484 32,700  Level FlightAware ADS-B
Sun 04:04:47 PM 33.7320 -99.4460 297° West 421 484 32,700  Level FlightAware ADS-B
Sun 04:05:37 PM 33.7710 -99.5340 298° West 421 484 32,700  Level FlightAware ADS-B
Sun 04:06:17 PM 33.8020 -99.6040 298° West 421 484 32,700  Level FlightAware ADS-B
Sun 04:06:57 PM 33.8330 -99.6740 298° West 421 484 32,700 2,765 Level FlightAware ADS-B
Sun 04:08:12 PM 34.1000 -99.8560 331° Northwest 406 467 38,000 2,891 Climbing FlightAware ADS-B
Sun 04:08:47 PM 34.1350 -99.9160 305° West 406 467 38,000  Level FlightAware ADS-B
Sun 04:09:37 PM 34.1810 -99.9950 305° West 406 467 38,000  Level FlightAware ADS-B
Sun 04:10:17 PM 34.2180 -100.0580 305° West 406 467 38,000  Level FlightAware ADS-B
Sun 04:10:57 PM 34.2540 -100.1210 305° West 406 467 38,000  Level FlightAware ADS-B
Sun 04:11:37 PM 34.2910 -100.1850 305° West 406 467 38,000  Level FlightAware ADS-B
Sun 04:12:17 PM 34.3280 -100.2480 305° West 406 467 38,000  Level FlightAware ADS-B
Sun 04:13:07 PM 34.3730 -100.3270 305° West 406 467 38,000  Level FlightAware ADS-B
Sun 04:13:47 PM 34.4100 -100.3910 305° West 406 467 38,000  Level FlightAware ADS-B
Sun 04:14:27 PM 34.4470 -100.4540 305° West 406 467 38,000  Level FlightAware ADS-B
Sun 04:15:07 PM 34.4830 -100.5180 304° West 406 467 38,000  Level FlightAware ADS-B
Sun 04:15:47 PM 34.5200 -100.5810 305° West 406 467 38,000  Level FlightAware ADS-B
Sun 04:16:27 PM 34.5560 -100.6450 304° West 406 467 38,000  Level FlightAware ADS-B
Sun 04:17:17 PM 34.6020 -100.7240 305° West 406 467 38,000  Level FlightAware ADS-B
Sun 04:17:57 PM 34.6390 -100.7880 305° West 406 467 38,000  Level FlightAware ADS-B
Sun 04:19:02 PM 34.7919 -101.0397 305° West 402 463 38,000  Level Albuquerque Center
Sun 04:20:04 PM 34.8675 -101.1731 305° West 399 459 38,000  Level Albuquerque Center
Sun 04:21:06 PM 34.9303 -101.2842 305° West 399 459 38,000  Level Albuquerque Center
Sun 04:22:08 PM 34.9986 -101.4031 305° West 402 463 38,000  Level Albuquerque Center
Sun 04:24:12 PM 35.1272 -101.6289 305° West 403 464 38,000  Level Albuquerque Center
Sun 04:25:14 PM 35.1947 -101.7489 305° West 401 461 38,000  Level Albuquerque Center
Sun 04:26:16 PM 35.2589 -101.8619 305° West 401 461 38,000  Level Albuquerque Center
Sun 04:27:18 PM 35.3233 -101.9767 305° West 404 465 38,000  Level Albuquerque Center
Sun 04:28:19 PM 35.3783 -102.0822 303° West 405 466 38,000  Level Albuquerque Center
Sun 04:29:21 PM 35.4556 -102.2189 305° West 407 468 38,000  Level Albuquerque Center
Sun 04:30:23 PM 35.5186 -102.3328 304° West 405 466 38,000  Level Albuquerque Center
Sun 04:31:25 PM 35.5811 -102.4453 304° West 402 463 38,000  Level Albuquerque Center
Sun 04:32:27 PM 35.6439 -102.5592 304° West 402 463 38,000  Level Albuquerque Center
Sun 04:33:29 PM 35.7056 -102.6731 304° West 402 463 38,000  Level Albuquerque Center
Sun 04:34:31 PM 35.7678 -102.7864 304° West 401 461 38,000  Level Albuquerque Center
Sun 04:35:33 PM 35.8292 -102.8972 304° West 395 455 38,000  Level Albuquerque Center
Sun 04:36:35 PM 35.8983 -103.0250 304° West 397 457 38,000  Level Albuquerque Center
Sun 04:37:37 PM 35.9603 -103.1394 304° West 398 458 38,000  Level Albuquerque Center
Sun 04:38:39 PM 36.0214 -103.2539 303° West 398 458 38,000  Level Albuquerque Center
Sun 04:39:41 PM 36.0911 -103.3850 303° West 392 451 38,000  Level Albuquerque Center
Sun 04:40:43 PM 36.1522 -103.4967 304° West 391 450 38,000  Level Albuquerque Center
Sun 04:41:45 PM 36.2122 -103.6106 303° West 392 451 38,000  Level Albuquerque Center
Sun 04:42:47 PM 36.2731 -103.7236 304° West 393 452 38,000  Level Albuquerque Center
Sun 04:43:49 PM 36.3322 -103.8367 303° West 391 450 38,000  Level Albuquerque Center
Sun 04:44:51 PM 36.3917 -103.9492 303° West 389 448 38,000  Level Albuquerque Center
Sun 04:45:53 PM 36.4508 -104.0628 303° West 389 448 38,000  Level Albuquerque Center
Sun 04:46:55 PM 36.5208 -104.1961 303° West 392 451 38,000  Level Albuquerque Center
Sun 04:47:57 PM 36.5806 -104.3111 303° West 392 451 38,000  Level Albuquerque Center
Sun 04:48:58 PM 36.6411 -104.4242 304° West 392 451 38,000  Level Albuquerque Center
Sun 04:50:00 PM 36.7039 -104.5444 303° West 390 449 38,000  Level Albuquerque Center
Sun 04:51:02 PM 36.7614 -104.6578 302° West 398 458 38,000  Level Albuquerque Center
Sun 04:52:04 PM 36.8278 -104.7858 303° West 395 455 38,000  Level Albuquerque Center
Sun 04:53:04 PM 36.8850 -104.8967 303° West 394 453 38,000  Level Denver Center
Sun 04:54:06 PM 36.9444 -105.0122 303° West 394 453 38,000  Level Denver Center
Sun 04:55:07 PM 36.9900 -105.1036 302° West 393 452 38,000  Level Denver Center
Sun 05:00:45 PM 37.3422 -105.8020 302° West 402 463 38,000  Level FlightAware ADS-B
Sun 05:00:51 PM 37.3472 -105.8150 296° West 400 460 38,000  Level FlightAware ADS-B
Sun 05:01:06 PM 37.3584 -105.8470 294° West 397 457 38,000  Level FlightAware ADS-B
Sun 05:01:36 PM 37.3774 -105.9110 291° West 393 452 38,000  Level FlightAware ADS-B
Sun 05:02:07 PM 37.3971 -105.9770 291° West 397 457 38,000  Level FlightAware ADS-B
Sun 05:02:45 PM 37.4215 -106.0600 290° West 397 457 38,000  Level FlightAware ADS-B
Sun 05:08:07 PM 37.6220 -106.7510 290° West 401 461 38,000  Level FlightAware ADS-B
Sun 05:11:12 PM 37.7380 -107.1580 290° West 405 466 38,000  Level FlightAware ADS-B
Sun 05:11:52 PM 37.7640 -107.2480 290° West 407 468 38,000  Level FlightAware ADS-B
Sun 05:12:32 PM 37.7870 -107.3310 289° West 407 468 38,000  Level FlightAware ADS-B
Sun 05:13:22 PM 37.8120 -107.4180 290° West 402 463 38,000  Level FlightAware ADS-B
Sun 05:14:07 PM 37.8370 -107.5110 289° West 402 463 38,000  Level FlightAware ADS-B
Sun 05:14:47 PM 37.8720 -107.6330 290° West 402 463 38,000  Level FlightAware ADS-B
Sun 05:17:47 PM 37.9830 -108.0360 289° West 407 468 38,000  Level FlightAware ADS-B
Sun 05:18:27 PM 38.0030 -108.1120 288° West 407 468 38,000  Level FlightAware ADS-B
Sun 05:19:07 PM 38.0240 -108.1890 289° West 407 468 38,000  Level FlightAware ADS-B
Sun 05:19:37 PM 38.0400 -108.2470 289° West 407 468 38,000  Level FlightAware ADS-B
Sun 05:20:17 PM 38.0610 -108.3240 289° West 407 468 38,000  Level FlightAware ADS-B
Sun 05:20:57 PM 38.0810 -108.4010 288° West 407 468 38,000  Level FlightAware ADS-B
Sun 05:21:47 PM 38.1080 -108.4970 290° West 407 468 38,000  Level FlightAware ADS-B
Sun 05:22:27 PM 38.1280 -108.5740 288° West 407 468 38,000  Level FlightAware ADS-B
Sun 05:23:07 PM 38.1490 -108.6510 289° West 407 468 38,000  Level FlightAware ADS-B
Sun 05:24:02 PM 38.2090 -108.8790 289° West 408 470 38,000  Level FlightAware ADS-B
Sun 05:24:47 PM 38.2370 -108.9830 289° West 408 470 38,000  Level FlightAware ADS-B
Sun 05:25:27 PM 38.2590 -109.0690 288° West 409 471 38,000  Level FlightAware ADS-B
Sun 05:26:07 PM 38.2790 -109.1470 288° West 409 471 38,000  Level FlightAware ADS-B
Sun 05:26:47 PM 38.2990 -109.2250 288° West 409 471 38,000  Level FlightAware ADS-B
Sun 05:27:37 PM 38.3240 -109.3220 288° West 409 471 38,000  Level FlightAware ADS-B
Sun 05:29:57 PM 38.4210 -109.6950 288° West 411 473 38,000  Level FlightAware ADS-B
Sun 05:30:32 PM 38.4250 -109.7570 275° West 411 473 38,000  Level FlightAware ADS-B
Sun 05:31:17 PM 38.4420 -109.8510 283° West 411 473 38,000  Level FlightAware ADS-B
Sun 05:32:07 PM 38.4600 -109.9520 283° West 411 473 38,000  Level FlightAware ADS-B
Sun 05:32:47 PM 38.4750 -110.0320 283° West 411 473 38,000  Level FlightAware ADS-B
Sun 05:33:27 PM 38.4890 -110.1130 282° West 411 473 38,000  Level FlightAware ADS-B
Sun 05:34:07 PM 38.5040 -110.1930 283° West 411 473 38,000  Level FlightAware ADS-B
Sun 05:34:47 PM 38.5180 -110.2740 282° West 411 473 38,000  Level FlightAware ADS-B
Sun 05:35:27 PM 38.5330 -110.3540 284° West 411 473 38,000  Level FlightAware ADS-B
Sun 05:36:07 PM 38.5470 -110.4350 282° West 411 473 38,000  Level FlightAware ADS-B
Sun 05:36:47 PM 38.5620 -110.5150 284° West 411 473 38,000  Level FlightAware ADS-B
Sun 05:37:27 PM 38.5760 -110.5960 282° West 411 473 38,000  Level FlightAware ADS-B
Sun 05:38:07 PM 38.5910 -110.6770 283° West 411 473 38,000  Level FlightAware ADS-B
Sun 05:38:47 PM 38.6050 -110.7570 283° West 411 473 38,000  Level FlightAware ADS-B
Sun 05:39:37 PM 38.6240 -110.8580 284° West 411 473 38,000  Level FlightAware ADS-B
Sun 05:40:17 PM 38.6380 -110.9390 283° West 411 473 38,000  Level FlightAware ADS-B
Sun 05:40:48 PM 38.3922 -111.2547 283° West 408 470 38,000  Level Salt Lake Center
Sun 05:41:49 PM 38.3869 -111.3983 267° West 408 470 38,000  Level Salt Lake Center
Sun 05:42:51 PM 38.3822 -111.5425 268° West 409 471 38,000  Level Salt Lake Center
Sun 05:43:53 PM 38.3767 -111.7144 268° West 406 467 38,000  Level Salt Lake Center
Sun 05:44:54 PM 38.3719 -111.8558 268° West 403 464 38,000  Level Salt Lake Center
Sun 05:45:56 PM 38.3656 -111.9961 267° West 400 460 38,000  Level Salt Lake Center
Sun 05:46:58 PM 38.3611 -112.1386 268° West 403 464 38,000  Level Salt Lake Center
Sun 05:47:59 PM 38.3544 -112.2797 267° West 403 464 38,000  Level Salt Lake Center
Sun 05:49:01 PM 38.3492 -112.4206 267° West 401 461 38,000  Level Salt Lake Center
Sun 05:50:03 PM 38.3422 -112.5625 266° West 403 464 38,000  Level Salt Lake Center
Sun 05:51:04 PM 38.3353 -112.7311 267° West 402 463 38,000  Level Salt Lake Center
Sun 05:52:06 PM 38.3292 -112.8733 267° West 404 465 38,000  Level Salt Lake Center
Sun 05:53:08 PM 38.3217 -113.0167 266° West 408 470 38,000  Level Salt Lake Center
Sun 05:54:09 PM 38.3147 -113.1608 267° West 411 473 38,000  Level Salt Lake Center
Sun 05:55:11 PM 38.3081 -113.3061 267° West 413 475 38,000  Level Salt Lake Center
Sun 05:56:13 PM 38.3006 -113.4497 266° West 411 473 38,000  Level Salt Lake Center
Sun 05:57:14 PM 38.2919 -113.6239 266° West 414 476 38,000  Level Salt Lake Center
Sun 05:58:16 PM 38.2842 -113.7689 266° West 414 476 38,000  Level Salt Lake Center
Sun 05:59:17 PM 38.2764 -113.9111 266° West 409 471 38,000  Level Salt Lake Center
Sun 06:00:19 PM 38.2692 -114.0481 266° West 397 457 38,000  Level Salt Lake Center
Sun 06:01:21 PM 38.2614 -114.1875 266° West 395 455 38,000  Level Salt Lake Center
Sun 06:02:22 PM 38.2533 -114.3228 266° West 390 449 38,000  Level Salt Lake Center
Sun 06:03:24 PM 38.2442 -114.4569 265° West 384 442 38,000  Level Salt Lake Center
Sun 06:04:25 PM 38.2347 -114.6178 266° West 383 441 38,000  Level Salt Lake Center
Sun 06:05:27 PM 38.2272 -114.7528 266° West 385 443 38,000  Level Salt Lake Center
Sun 06:06:28 PM 38.2189 -114.8875 266° West 385 443 38,000  Level Salt Lake Center
Sun 06:07:30 PM 38.2106 -115.0214 266° West 384 442 38,000  Level Salt Lake Center
Sun 06:08:31 PM 38.2028 -115.1553 266° West 382 440 38,000  Level Salt Lake Center
Sun 06:09:33 PM 38.1928 -115.2925 265° West 388 447 38,000  Level Salt Lake Center
Sun 06:10:34 PM 38.1847 -115.4272 266° West 386 444 38,000  Level Salt Lake Center
Sun 06:11:36 PM 38.1753 -115.5614 265° West 383 441 38,000  Level Salt Lake Center
Sun 06:12:37 PM 38.1642 -115.7247 265° West 386 444 38,000  Level Salt Lake Center
Sun 06:13:39 PM 38.1550 -115.8606 265° West 388 447 38,000  Level Salt Lake Center
Sun 06:14:41 PM 38.1447 -115.9922 264° West 377 434 38,000  Level Salt Lake Center
Sun 06:15:42 PM 38.1331 -116.1242 264° West 376 433 38,000  Level Salt Lake Center
Sun 06:16:44 PM 38.1236 -116.2544 265° West 373 429 38,000  Level Salt Lake Center
Sun 06:17:45 PM 38.1147 -116.3850 265° West 372 428 38,000  Level Salt Lake Center
Sun 06:18:47 PM 38.1047 -116.5172 265° West 375 432 38,000  Level Salt Lake Center
Sun 06:19:48 PM 38.0947 -116.6478 264° West 373 429 38,000  Level Salt Lake Center
Sun 06:20:50 PM 38.0847 -116.7797 265° West 373 429 38,000  Level Salt Lake Center
Sun 06:21:51 PM 38.0731 -116.9400 265° West 378 435 38,000  Level Salt Lake Center
Sun 06:22:40 PM 38.0639 -117.0450 264° West 375 432 38,000  Level Oakland Center
Sun 06:23:54 PM 38.0508 -117.2097 264° West 380 437 38,000  Level Salt Lake Center
Sun 06:24:43 PM 38.0403 -117.3225 263° West 389 448 38,000  Level Oakland Center
Sun 06:25:44 PM 38.0294 -117.4592 264° West 387 445 38,000  Level Oakland Center
Sun 06:26:46 PM 38.0181 -117.5931 264° West 382 440 38,000  Level Oakland Center
Sun 06:27:47 PM 38.0067 -117.7261 264° West 379 436 38,000  Level Oakland Center
Sun 06:28:49 PM 37.9939 -117.8597 263° West 381 438 38,000  Level Oakland Center
Sun 06:29:50 PM 37.9792 -117.9906 262° West 376 433 38,000  Level Oakland Center
Sun 06:35:52 PM 37.8900 -118.8090 262° West 384 442 38,000  Level FlightAware ADS-B
Sun 06:36:32 PM 37.8810 -118.8850 261° West 384 442 38,000  Level FlightAware ADS-B
Sun 06:37:17 PM 37.8680 -119.0050 262° West 381 438 38,000  Level FlightAware ADS-B
Sun 06:37:57 PM 37.8590 -119.0900 262° West 380 437 38,000  Level FlightAware ADS-B
Sun 06:38:42 PM 37.8470 -119.1890 261° West 378 435 38,000  Level FlightAware ADS-B
Sun 06:39:22 PM 37.8370 -119.2780 262° West 378 435 38,000  Level FlightAware ADS-B
Sun 06:39:57 PM 37.8280 -119.3560 262° West 380 437 38,000  Level FlightAware ADS-B
Sun 06:40:47 PM 37.8140 -119.4670 261° West 382 440 38,000  Level FlightAware ADS-B
Sun 06:41:32 PM 37.8030 -119.5640 262° West 384 442 38,000  Level FlightAware ADS-B
Sun 06:42:07 PM 37.7930 -119.6440 261° West 385 443 38,000  Level FlightAware ADS-B
Sun 06:42:52 PM 37.7810 -119.7420 261° West 387 445 38,000  Level FlightAware ADS-B
Sun 06:43:37 PM 37.7690 -119.8410 261° West 388 447 38,000 -141 Level FlightAware ADS-B
Sun 06:44:17 PM 37.7580 -119.9300 261° West 388 447 37,800 -706 Descending FlightAware ADS-B
Sun 06:45:02 PM 37.7460 -120.0300 261° West 390 449 37,000 -565 Descending FlightAware ADS-B
Sun 06:45:42 PM 37.7350 -120.1190 261° West 389 448 37,000  Level FlightAware ADS-B
Sun 06:46:22 PM 37.7240 -120.2100 261° West 389 448 37,000 -900 Level FlightAware ADS-B
Sun 06:47:02 PM 37.7130 -120.2980 261° West 392 451 35,800 -2,824 Descending FlightAware ADS-B
Sun 06:47:47 PM 37.6990 -120.4070 261° West 411 473 33,000 -3,667 Descending FlightAware ADS-B
Sun 06:48:32 PM 37.6850 -120.5150 261° West 421 484 30,300 -3,106 Descending FlightAware ADS-B
Sun 06:49:12 PM 37.6730 -120.6120 261° West 407 468 28,600 -2,625 Descending FlightAware ADS-B
Sun 06:49:52 PM 37.6610 -120.7020 260° West 393 452 26,800 -2,925 Descending FlightAware ADS-B
Sun 06:50:32 PM 37.6490 -120.7910 260° West 381 438 24,700 -3,176 Descending FlightAware ADS-B
Sun 06:51:17 PM 37.6370 -120.8890 261° West 379 436 22,300 -2,824 Descending FlightAware ADS-B
Sun 06:51:57 PM 37.6250 -120.9770 260° West 373 429 20,700 -2,259 Descending FlightAware ADS-B
Sun 06:52:42 PM 37.6150 -121.0710 262° West 365 420 19,100 -2,188 Descending FlightAware ADS-B
Sun 06:53:22 PM 37.6050 -121.1530 261° West 360 414 17,600 -2,329 Descending FlightAware ADS-B
Sun 06:54:07 PM 37.5940 -121.2490 262° West 356 410 15,800 -2,259 Descending FlightAware ADS-B
Sun 06:54:47 PM 37.5850 -121.3310 262° West 351 404 14,400 -2,118 Descending FlightAware ADS-B
Sun 06:55:32 PM 37.5750 -121.4180 262° West 343 395 12,800 -2,047 Descending FlightAware ADS-B
Sun 06:56:12 PM 37.5660 -121.4960 262° West 336 387 11,500 -1,275 Descending FlightAware ADS-B
Sun 06:56:52 PM 37.5570 -121.5700 261° West 301 346 11,100 -565 Descending FlightAware ADS-B
Sun 06:57:37 PM 37.5450 -121.6450 259° West 274 315 10,700 -776 Descending FlightAware ADS-B
Sun 06:58:17 PM 37.5290 -121.7040 251° West 269 310 10,000 -1,091 Descending FlightAware ADS-B
Sun 06:58:32 PM 37.5240 -121.7250 253° West 266 306 9,700 -1,050 Descending FlightAware ADS-B
Sun 06:58:57 PM 37.5140 -121.7630 252° West 265 305 9,300 -1,091 Descending FlightAware ADS-B
Sun 06:59:27 PM 37.5020 -121.8070 251° West 273 314 8,700 -1,100 Descending FlightAware ADS-B
Sun 06:59:57 PM 37.4890 -121.8520 250° West 271 312 8,200 -960 Descending FlightAware ADS-B
Sun 07:00:17 PM 37.4840 -121.8820 258° West 265 305 7,900 -1,200 Descending FlightAware ADS-B
Sun 07:00:37 PM 37.4880 -121.9100 280° West 262 302 7,400 -1,560 Descending FlightAware ADS-B
Sun 07:01:07 PM 37.4970 -121.9570 284° West 264 304 6,600 -1,467 Descending FlightAware ADS-B
Sun 07:01:22 PM 37.5010 -121.9770 284° West 264 304 6,300 -1,500 Descending FlightAware ADS-B
Sun 07:01:47 PM 37.5110 -122.0160 288° West 254 292 5,600 -1,527 Descending FlightAware ADS-B
Sun 07:02:17 PM 37.5230 -122.0560 291° West 236 272 4,900 -1,333 Descending FlightAware ADS-B
Sun 07:02:32 PM 37.5280 -122.0730 290° West 231 266 4,600 -1,200 Descending FlightAware ADS-B
Sun 07:02:57 PM 37.5380 -122.1030 293° West 224 258 4,100 -1,309 Descending FlightAware ADS-B
Sun 07:03:27 PM 37.5490 -122.1400 291° West 216 249 3,400 -1,309 Descending FlightAware ADS-B
Sun 07:03:52 PM 37.5580 -122.1700 291° West 195 224 2,900 -1,200 Descending FlightAware ADS-B
Sun 07:04:07 PM 37.5620 -122.1840 290° West 184 212 2,600 -1,050 Descending FlightAware ADS-B
Sun 07:04:32 PM 37.5700 -122.2080 293° West 170 196 2,200 -1,067 Descending FlightAware ADS-B
Sun 07:04:52 PM 37.5750 -122.2260 289° West 163 188 1,800 -933 Descending FlightAware ADS-B
Sun 07:05:17 PM 37.5800 -122.2480 286° West 155 178 1,500 -545 Descending FlightAware ADS-B
Sun 07:05:47 PM 37.5840 -122.2730 281° West 144 166 1,300 -545 Descending FlightAware ADS-B
Sun 07:06:12 PM 37.5870 -122.2950 280° West 142 163 1,000 -764 Descending FlightAware ADS-B
Sun 07:06:42 PM 37.5940 -122.3160 293° West 137 158 600 -764 Descending FlightAware ADS-B
Sun 07:07:07 PM 37.6010 -122.3330 297° West 132 152 300 -720 Descending FlightAware ADS-B
Sun 07:07:37 PM 37.6090 -122.3530 297° West 127 146 -600 Descending FlightAware ADS-B
Sun 07:07:52 PM 37.6130 -122.3620 299° West 128 147  Level FlightAware ADS-B

Login

Don't have an account? Register now (free) for customized features, flight alerts, and more!